Time;durP1;ratioP1;P1;durP2;ratioP2;P2;SDS_P1;SDS_P2;PMS_P1;PMS_P2;Temp;Humidity;BMP_temperature;BMP_pressure;BME280_temperature;BME280_humidity;BME280_pressure;Samples;Min_cycle;Max_cycle;Signal;HPM_P1;HPM_P2
2021/04/13 00:00:33;;;;;;;;;36.00;31.67;;;;;;;;5021504;28;8898;-79
2021/04/13 00:03:04;;;;;;;;;38.33;34.33;;;;;;;;5021611;28;8872;-78
2021/04/13 00:05:36;;;;;;;;;36.67;34.00;;;;;;;;5023751;28;8984;-78
2021/04/13 00:08:08;;;;;;;;;46.33;40.33;;;;;;;;5033444;28;9433;-78
2021/04/13 00:10:37;;;;;;;;;44.00;38.67;;;;;;;;5026337;28;8864;-78
2021/04/13 00:13:05;;;;;;;;;37.33;34.33;;;;;;;;5026208;28;8896;-78
2021/04/13 00:15:36;;;;;;;;;38.00;32.00;;;;;;;;5022039;28;8856;-78
2021/04/13 00:18:04;;;;;;;;;40.00;35.00;;;;;;;;5021239;28;8884;-77
2021/04/13 00:20:37;;;;;;;;;43.33;37.33;;;;;;;;5025205;28;8977;-78
2021/04/13 00:23:05;;;;;;;;;40.00;35.33;;;;;;;;5022910;28;8899;-78
2021/04/13 00:25:35;;;;;;;;;40.00;35.33;;;;;;;;5027651;28;8886;-78
2021/04/13 00:28:02;;;;;;;;;34.33;30.00;;;;;;;;5025399;28;8984;-78
2021/04/13 00:30:39;;;;;;;;;50.67;40.67;;;;;;;;5019330;28;8836;-78
2021/04/13 00:33:07;;;;;;;;;50.33;44.67;;;;;;;;5019714;28;10255;-78
2021/04/13 00:35:36;;;;;;;;;54.67;43.00;;;;;;;;5014643;28;9748;-79
2021/04/13 00:38:18;;;;;;;;;37.67;37.67;;;;;;;;5021976;28;8864;-78
2021/04/13 00:40:47;;;;;;;;;41.00;34.33;;;;;;;;5020543;28;8843;-78
2021/04/13 00:43:16;;;;;;;;;37.00;32.33;;;;;;;;5020322;28;8950;-80
2021/04/13 00:45:45;;;;;;;;;37.33;35.67;;;;;;;;5022301;28;8868;-81
2021/04/13 00:48:18;;;;;;;;;30.67;30.00;;;;;;;;5021071;28;8994;-79
2021/04/13 00:50:48;;;;;;;;;53.00;43.33;;;;;;;;5021142;28;8873;-78
2021/04/13 00:53:18;;;;;;;;;62.00;47.00;;;;;;;;5028913;28;8907;-79
2021/04/13 00:55:48;;;;;;;;;39.33;35.00;;;;;;;;5024146;28;9483;-80
2021/04/13 00:58:19;;;;;;;;;41.00;36.33;;;;;;;;5016629;28;9720;-79
2021/04/13 01:00:50;;;;;;;;;36.67;31.67;;;;;;;;5020227;28;8828;-80
2021/04/13 01:03:19;;;;;;;;;36.67;36.67;;;;;;;;5021234;28;8884;-79
2021/04/13 01:05:49;;;;;;;;;39.00;38.67;;;;;;;;5018784;28;8897;-80
2021/04/13 01:08:22;;;;;;;;;32.67;31.33;;;;;;;;5022167;28;10020;-80
2021/04/13 01:10:49;;;;;;;;;30.00;28.33;;;;;;;;5019867;28;8860;-79
2021/04/13 01:13:20;;;;;;;;;45.33;38.67;;;;;;;;5021958;28;8875;-80
2021/04/13 01:15:49;;;;;;;;;44.00;36.67;;;;;;;;5031376;28;8865;-79
2021/04/13 01:18:21;;;;;;;;;33.33;30.67;;;;;;;;5019298;28;8892;-80
2021/04/13 01:20:53;;;;;;;;;30.67;30.00;;;;;;;;5020866;28;8872;-78
2021/04/13 01:23:24;;;;;;;;;32.33;29.67;;;;;;;;5020611;28;8895;-78
2021/04/13 01:25:58;;;;;;;;;40.33;32.00;;;;;;;;5023723;28;9004;-79
2021/04/13 01:28:27;;;;;;;;;48.00;37.00;;;;;;;;5020376;28;9664;-78
2021/04/13 01:30:58;;;;;;;;;44.00;38.00;;;;;;;;5020816;28;8855;-77
2021/04/13 01:33:39;;;;;;;;;47.00;39.67;;;;;;;;5021351;28;8864;-77
2021/04/13 01:36:17;;;;;;;;;100.67;75.67;;;;;;;;5020184;28;8962;-78
2021/04/13 01:39:00;;;;;;;;;41.33;32.67;;;;;;;;5007284;28;8974;-78
2021/04/13 01:41:42;;;;;;;;;50.67;39.33;;;;;;;;5017603;28;8939;-78
2021/04/13 01:44:10;;;;;;;;;25.33;25.33;;;;;;;;5022482;28;8872;-76
2021/04/13 01:46:38;;;;;;;;;93.00;72.67;;;;;;;;5023990;28;8940;-78
2021/04/13 01:49:06;;;;;;;;;65.33;47.33;;;;;;;;5020961;28;8895;-78
2021/04/13 01:51:35;;;;;;;;;58.00;49.67;;;;;;;;5020718;28;8933;-78
2021/04/13 01:54:04;;;;;;;;;44.00;37.00;;;;;;;;5017919;28;9633;-78
2021/04/13 01:56:39;;;;;;;;;52.00;44.33;;;;;;;;5029969;28;8860;-78
2021/04/13 01:59:12;;;;;;;;;44.67;44.00;;;;;;;;5025883;28;8864;-78
2021/04/13 02:01:42;;;;;;;;;51.67;45.00;;;;;;;;5020055;28;9590;-78
2021/04/13 02:04:15;;;;;;;;;30.67;28.33;;;;;;;;5014057;28;8880;-78
2021/04/13 02:06:48;;;;;;;;;50.67;47.00;;;;;;;;5022246;28;8868;-79
2021/04/13 02:09:26;;;;;;;;;54.67;48.33;;;;;;;;5023866;28;8886;-77
2021/04/13 02:11:56;;;;;;;;;45.00;43.33;;;;;;;;5019894;28;8864;-78
2021/04/13 02:14:24;;;;;;;;;51.67;35.00;;;;;;;;5026139;28;9961;-78
2021/04/13 02:16:54;;;;;;;;;53.00;44.00;;;;;;;;5021130;28;8878;-77
2021/04/13 02:19:24;;;;;;;;;51.67;44.00;;;;;;;;5028018;28;8880;-78
2021/04/13 02:21:55;;;;;;;;;53.33;49.00;;;;;;;;5024447;28;8870;-78
2021/04/13 02:24:28;;;;;;;;;61.00;47.00;;;;;;;;5023061;28;8872;-78
2021/04/13 02:26:57;;;;;;;;;53.67;41.33;;;;;;;;5015882;28;8922;-78
2021/04/13 02:29:31;;;;;;;;;44.33;37.00;;;;;;;;5024854;28;8876;-78
2021/04/13 02:32:00;;;;;;;;;38.33;32.33;;;;;;;;5022782;28;8848;-80
2021/04/13 02:34:36;;;;;;;;;43.33;37.00;;;;;;;;5024768;28;8907;-79
2021/04/13 02:37:11;;;;;;;;;55.00;45.33;;;;;;;;5023554;28;8941;-78
2021/04/13 02:39:40;;;;;;;;;46.33;40.33;;;;;;;;5024676;28;8888;-80
2021/04/13 02:42:13;;;;;;;;;45.00;44.33;;;;;;;;5023202;28;8882;-79
2021/04/13 02:44:40;;;;;;;;;39.67;37.67;;;;;;;;5023610;28;8878;-79
2021/04/13 02:47:11;;;;;;;;;37.00;31.00;;;;;;;;5034167;28;8867;-77
2021/04/13 02:49:42;;;;;;;;;39.00;32.00;;;;;;;;5024217;28;8884;-77
2021/04/13 02:52:14;;;;;;;;;31.00;28.67;;;;;;;;5032027;28;8871;-79
2021/04/13 02:54:46;;;;;;;;;40.00;35.67;;;;;;;;5022544;28;8882;-78
2021/04/13 02:57:18;;;;;;;;;47.33;42.33;;;;;;;;5024007;28;8887;-78
2021/04/13 02:59:45;;;;;;;;;31.67;31.33;;;;;;;;5023576;28;8876;-78
2021/04/13 03:02:18;;;;;;;;;44.67;36.33;;;;;;;;5023746;28;9602;-78
2021/04/13 03:04:49;;;;;;;;;50.67;36.67;;;;;;;;5023712;28;8894;-78
2021/04/13 03:07:20;;;;;;;;;38.33;32.33;;;;;;;;5023260;28;9004;-78
2021/04/13 03:09:48;;;;;;;;;49.00;39.33;;;;;;;;5022843;28;8944;-80
2021/04/13 03:12:15;;;;;;;;;41.67;41.67;;;;;;;;5022223;28;8878;-78
2021/04/13 03:14:46;;;;;;;;;50.33;39.33;;;;;;;;5026479;28;8883;-78
2021/04/13 03:17:15;;;;;;;;;45.00;37.33;;;;;;;;5027082;28;8914;-79
2021/04/13 03:19:45;;;;;;;;;42.00;34.00;;;;;;;;5032768;28;8876;-75
2021/04/13 03:22:12;;;;;;;;;36.33;33.67;;;;;;;;5028337;28;8849;-75
2021/04/13 03:24:43;;;;;;;;;41.33;39.33;;;;;;;;5035312;28;8881;-77
2021/04/13 03:27:11;;;;;;;;;35.00;30.67;;;;;;;;5029484;28;8877;-77
2021/04/13 03:29:44;;;;;;;;;52.67;43.67;;;;;;;;5018518;28;8868;-78
2021/04/13 03:32:13;;;;;;;;;47.33;35.33;;;;;;;;5032676;28;8822;-77
2021/04/13 03:34:41;;;;;;;;;39.33;37.00;;;;;;;;5024547;28;8895;-77
2021/04/13 03:37:09;;;;;;;;;42.67;41.33;;;;;;;;5026095;28;8909;-79
2021/04/13 03:39:38;;;;;;;;;34.67;34.33;;;;;;;;5023708;28;8891;-78
2021/04/13 03:42:06;;;;;;;;;33.67;32.67;;;;;;;;5035484;28;8904;-80
2021/04/13 03:44:37;;;;;;;;;40.67;31.00;;;;;;;;5021763;28;8991;-76
2021/04/13 03:47:10;;;;;;;;;43.67;37.00;;;;;;;;5020326;28;9683;-77
2021/04/13 03:49:42;;;;;;;;;38.33;30.67;;;;;;;;5022404;28;8909;-77
2021/04/13 03:52:14;;;;;;;;;44.67;39.33;;;;;;;;5021856;28;8884;-77
2021/04/13 03:54:41;;;;;;;;;38.33;34.67;;;;;;;;5023796;28;8895;-77
2021/04/13 03:57:09;;;;;;;;;40.67;36.33;;;;;;;;5015740;28;9671;-77
2021/04/13 03:59:39;;;;;;;;;36.67;30.33;;;;;;;;5021583;28;8866;-78
2021/04/13 04:02:08;;;;;;;;;46.33;40.00;;;;;;;;5022653;28;8836;-77
2021/04/13 04:04:36;;;;;;;;;35.00;33.33;;;;;;;;5021345;28;8874;-78
2021/04/13 04:07:21;;;;;;;;;32.67;31.00;;;;;;;;5024492;28;8895;-78
2021/04/13 04:09:48;;;;;;;;;46.67;30.67;;;;;;;;5024167;28;8879;-77
2021/04/13 04:12:19;;;;;;;;;35.00;32.00;;;;;;;;5023839;28;9024;-76
2021/04/13 04:14:57;;;;;;;;;43.00;33.00;;;;;;;;5024870;28;8844;-78
2021/04/13 04:17:25;;;;;;;;;36.00;31.00;;;;;;;;5027136;28;9136;-79
2021/04/13 04:19:56;;;;;;;;;34.33;32.67;;;;;;;;5022491;28;9022;-78
2021/04/13 04:22:25;;;;;;;;;46.33;42.00;;;;;;;;5020341;28;8876;-78
2021/04/13 04:24:54;;;;;;;;;29.33;27.33;;;;;;;;5022696;28;8905;-77
2021/04/13 04:27:29;;;;;;;;;35.33;31.67;;;;;;;;5021763;28;9093;-77
2021/04/13 04:30:12;;;;;;;;;32.67;31.33;;;;;;;;5025699;28;8865;-79
2021/04/13 04:32:42;;;;;;;;;39.33;34.67;;;;;;;;5017815;28;8886;-79
2021/04/13 04:35:11;;;;;;;;;34.33;31.67;;;;;;;;5021043;28;8864;-79
2021/04/13 04:38:00;;;;;;;;;43.67;34.67;;;;;;;;5027830;28;8873;-79
2021/04/13 04:40:40;;;;;;;;;42.33;38.33;;;;;;;;5022091;28;8897;-78
2021/04/13 04:43:11;;;;;;;;;34.00;25.67;;;;;;;;5020982;28;8890;-78
2021/04/13 04:45:50;;;;;;;;;28.00;28.00;;;;;;;;5016209;28;8852;-78
2021/04/13 04:48:29;;;;;;;;;41.33;34.67;;;;;;;;5020763;28;8918;-79
2021/04/13 04:50:58;;;;;;;;;39.33;33.67;;;;;;;;5022424;28;8880;-78
2021/04/13 04:53:27;;;;;;;;;36.33;30.67;;;;;;;;5031210;28;9744;-78
2021/04/13 04:55:56;;;;;;;;;33.33;32.33;;;;;;;;5021429;28;8957;-80
2021/04/13 04:58:24;;;;;;;;;45.00;37.00;;;;;;;;5021998;28;8875;-79
2021/04/13 05:00:52;;;;;;;;;37.33;35.33;;;;;;;;5020181;28;8808;-80
2021/04/13 05:03:20;;;;;;;;;51.00;40.00;;;;;;;;5029025;28;8875;-78
2021/04/13 05:05:47;;;;;;;;;30.33;30.33;;;;;;;;5019724;28;8888;-80
2021/04/13 05:08:14;;;;;;;;;35.33;27.33;;;;;;;;5025132;28;8872;-79
2021/04/13 05:10:43;;;;;;;;;36.33;34.33;;;;;;;;5027390;28;8886;-79
2021/04/13 05:13:10;;;;;;;;;45.33;39.67;;;;;;;;5020318;28;8880;-78
2021/04/13 05:15:37;;;;;;;;;47.33;44.00;;;;;;;;5018641;28;9570;-77
2021/04/13 05:18:05;;;;;;;;;49.33;38.67;;;;;;;;5019792;28;8887;-78
2021/04/13 05:20:32;;;;;;;;;31.00;31.00;;;;;;;;5022030;28;9800;-78
2021/04/13 05:22:59;;;;;;;;;42.00;39.00;;;;;;;;5018252;28;8921;-78
2021/04/13 05:25:26;;;;;;;;;55.00;49.50;;;;;;;;5021791;28;8904;-80
2021/04/13 05:27:54;;;;;;;;;55.33;45.00;;;;;;;;5020604;28;8860;-83
2021/04/13 05:30:23;;;;;;;;;42.33;38.67;;;;;;;;5024124;28;8872;-83
2021/04/13 05:32:49;;;;;;;;;43.33;34.00;;;;;;;;5027934;28;8857;-85
2021/04/13 05:35:17;;;;;;;;;39.00;35.33;;;;;;;;5022693;28;9885;-85
2021/04/13 05:37:44;;;;;;;;;47.33;39.67;;;;;;;;5025313;28;8879;-86
2021/04/13 05:40:15;;;;;;;;;38.33;31.33;;;;;;;;5021235;28;9000;-87
2021/04/13 05:42:42;;;;;;;;;49.67;42.33;;;;;;;;5023410;28;8868;-85
2021/04/13 05:45:14;;;;;;;;;49.33;44.33;;;;;;;;5021334;28;8891;-87
2021/04/13 05:47:41;;;;;;;;;39.67;35.33;;;;;;;;5021948;28;8929;-85
2021/04/13 05:50:11;;;;;;;;;41.00;37.67;;;;;;;;5021706;28;8860;-74
2021/04/13 05:52:38;;;;;;;;;45.33;42.00;;;;;;;;5014603;28;9730;-75
2021/04/13 05:55:07;;;;;;;;;43.67;43.00;;;;;;;;5015093;28;8918;-75
2021/04/13 05:57:34;;;;;;;;;46.33;44.33;;;;;;;;5023075;28;9843;-75
2021/04/13 06:00:02;;;;;;;;;53.33;43.33;;;;;;;;5023723;28;8872;-75
2021/04/13 06:02:32;;;;;;;;;42.67;32.33;;;;;;;;5021821;28;8828;-75
2021/04/13 06:05:00;;;;;;;;;44.33;42.00;;;;;;;;5024696;28;8978;-74
2021/04/13 06:07:27;;;;;;;;;55.00;42.67;;;;;;;;5023847;28;9571;-74
2021/04/13 06:09:54;;;;;;;;;48.33;41.33;;;;;;;;5023263;28;8884;-72
2021/04/13 06:12:23;;;;;;;;;46.67;38.33;;;;;;;;5024051;28;8921;-76
2021/04/13 06:14:51;;;;;;;;;33.33;31.67;;;;;;;;5022778;28;8913;-76
2021/04/13 06:17:18;;;;;;;;;46.67;41.33;;;;;;;;5024557;28;9010;-74
2021/04/13 06:19:46;;;;;;;;;43.67;38.33;;;;;;;;5021457;28;8888;-75
2021/04/13 06:22:13;;;;;;;;;51.33;45.00;;;;;;;;5023205;28;8994;-74
2021/04/13 06:24:40;;;;;;;;;52.33;39.67;;;;;;;;5023067;28;8930;-75
2021/04/13 06:27:08;;;;;;;;;47.33;42.67;;;;;;;;5023641;28;8898;-76
2021/04/13 06:29:38;;;;;;;;;46.33;39.67;;;;;;;;5022737;28;8881;-75
2021/04/13 06:32:05;;;;;;;;;39.33;33.00;;;;;;;;5022497;28;8843;-73
2021/04/13 06:34:32;;;;;;;;;49.00;44.00;;;;;;;;5024012;28;8892;-74
2021/04/13 06:37:02;;;;;;;;;36.33;28.67;;;;;;;;5021865;28;9002;-74
2021/04/13 06:39:30;;;;;;;;;42.00;36.00;;;;;;;;5023561;28;8986;-74
2021/04/13 06:42:09;;;;;;;;;53.33;45.00;;;;;;;;5023135;28;8890;-76
2021/04/13 06:44:56;;;;;;;;;48.33;44.33;;;;;;;;5023445;28;8890;-75
2021/04/13 06:47:33;;;;;;;;;55.67;47.67;;;;;;;;5024863;28;8855;-74
2021/04/13 06:50:07;;;;;;;;;51.33;45.33;;;;;;;;5022169;28;8860;-76
2021/04/13 06:52:54;;;;;;;;;47.00;41.33;;;;;;;;5023602;28;8893;-76
2021/04/13 06:55:35;;;;;;;;;61.67;47.67;;;;;;;;5021678;28;8868;-80
2021/04/13 06:58:10;;;;;;;;;48.00;41.33;;;;;;;;5019843;28;8887;-75
2021/04/13 07:00:54;;;;;;;;;55.67;44.67;;;;;;;;5021055;28;8875;-78
2021/04/13 07:03:31;;;;;;;;;44.67;39.00;;;;;;;;5021843;28;8858;-75
2021/04/13 07:06:06;;;;;;;;;51.67;44.33;;;;;;;;5022821;28;8875;-75
2021/04/13 07:08:38;;;;;;;;;40.67;36.67;;;;;;;;5021718;28;8869;-75
2021/04/13 07:11:09;;;;;;;;;46.00;43.33;;;;;;;;5022601;28;9025;-79
2021/04/13 07:13:44;;;;;;;;;50.00;42.33;;;;;;;;5021493;28;9637;-77
2021/04/13 07:16:15;;;;;;;;;57.67;40.33;;;;;;;;5019623;28;8958;-78
2021/04/13 07:18:47;;;;;;;;;49.33;42.00;;;;;;;;5023017;28;9645;-77
2021/04/13 07:21:21;;;;;;;;;51.00;47.00;;;;;;;;5020583;28;8887;-78
2021/04/13 07:23:53;;;;;;;;;23.67;21.33;;;;;;;;5022087;28;8968;-76
2021/04/13 07:26:24;;;;;;;;;59.67;43.33;;;;;;;;5022872;28;9621;-76
2021/04/13 07:28:56;;;;;;;;;50.33;45.00;;;;;;;;5021437;28;8995;-76
2021/04/13 07:31:29;;;;;;;;;53.67;47.00;;;;;;;;5022350;28;8816;-76
2021/04/13 07:33:57;;;;;;;;;37.67;35.00;;;;;;;;5020688;28;8868;-76
2021/04/13 07:36:28;;;;;;;;;50.67;43.33;;;;;;;;5021267;28;9285;-74
2021/04/13 07:38:57;;;;;;;;;51.00;43.33;;;;;;;;5021502;28;8866;-75
2021/04/13 07:41:29;;;;;;;;;41.33;36.67;;;;;;;;5021366;28;9641;-76
2021/04/13 07:44:00;;;;;;;;;37.00;33.33;;;;;;;;5020583;28;8868;-76
2021/04/13 07:46:46;;;;;;;;;37.67;34.33;;;;;;;;5019950;28;8871;-77
2021/04/13 07:49:15;;;;;;;;;55.67;47.33;;;;;;;;5020835;28;9629;-75
2021/04/13 07:52:02;;;;;;;;;50.67;37.00;;;;;;;;5020476;28;8888;-75
2021/04/13 07:54:45;;;;;;;;;34.33;34.33;;;;;;;;5018807;28;9678;-75
2021/04/13 07:57:20;;;;;;;;;44.67;36.00;;;;;;;;5022183;28;8929;-76
2021/04/13 08:00:07;;;;;;;;;36.33;36.33;;;;;;;;5020836;28;11641;-75
2021/04/13 08:02:34;;;;;;;;;49.33;43.00;;;;;;;;5022077;28;8840;-73
2021/04/13 08:05:02;;;;;;;;;37.50;35.00;;;;;;;;5019693;28;11604;-77
2021/04/13 08:07:32;;;;;;;;;37.33;33.67;;;;;;;;5018637;28;11629;-77
2021/04/13 08:10:14;;;;;;;;;40.00;34.25;;;;;;;;5022014;28;11747;-76
2021/04/13 08:12:53;;;;;;;;;37.25;33.00;;;;;;;;5018191;28;11599;-79
2021/04/13 08:15:36;;;;;;;;;30.75;25.75;;;;;;;;5018815;28;11662;-77
2021/04/13 08:18:11;;;;;;;;;30.00;27.50;;;;;;;;5017833;28;11597;-76
2021/04/13 08:20:42;;;;;;;;;32.25;29.25;;;;;;;;5017944;28;11746;-76
2021/04/13 08:23:13;;;;;;;;;26.75;23.25;;;;;;;;5019161;28;11609;-75
2021/04/13 08:25:45;;;;;;;;;25.75;25.00;;;;;;;;5016755;28;11659;-78
2021/04/13 08:28:30;;;;;;;;;25.50;22.75;;;;;;;;5020376;28;11829;-76
2021/04/13 08:34:06;;;;;;;;;30.25;27.25;;;;;;;;5019140;28;11568;-78
2021/04/13 08:36:39;;;;;;;;;40.75;28.75;;;;;;;;5020514;28;12281;-77
2021/04/13 08:39:10;;;;;;;;;21.75;21.50;;;;;;;;5017191;28;11634;-75
2021/04/13 08:41:45;;;;;;;;;24.75;20.50;;;;;;;;5018387;28;12379;-75
2021/04/13 08:44:21;;;;;;;;;24.25;20.00;;;;;;;;5016199;28;11603;-75
2021/04/13 08:46:51;;;;;;;;;23.50;19.75;;;;;;;;5017790;28;11599;-77
2021/04/13 08:49:33;;;;;;;;;27.75;22.75;;;;;;;;5018483;28;11622;-76
2021/04/13 08:52:15;;;;;;;;;15.75;14.25;;;;;;;;5016870;28;11634;-75
2021/04/13 08:54:45;;;;;;;;;21.75;18.50;;;;;;;;5018199;28;11688;-76
2021/04/13 08:57:31;;;;;;;;;22.00;17.75;;;;;;;;5013979;28;11623;-75
2021/04/13 09:00:01;;;;;;;;;20.50;16.25;;;;;;;;5003664;28;11726;-73
2021/04/13 09:02:31;;;;;;;;;21.75;19.00;;;;;;;;5018842;28;11700;-75
2021/04/13 09:05:04;;;;;;;;;22.75;22.25;;;;;;;;5018091;28;11641;-74
2021/04/13 09:07:37;;;;;;;;;17.25;17.00;;;;;;;;5020995;28;11645;-76
2021/04/13 09:10:17;;;;;;;;;20.25;19.00;;;;;;;;5018386;28;11661;-76
2021/04/13 09:12:53;;;;;;;;;13.75;13.75;;;;;;;;5018039;28;11726;-77
2021/04/13 09:15:25;;;;;;;;;23.75;18.25;;;;;;;;5016504;28;12116;-75
2021/04/13 09:18:01;;;;;;;;;19.50;17.50;;;;;;;;5018351;28;11680;-75
2021/04/13 09:20:37;;;;;;;;;17.75;16.75;;;;;;;;5019943;28;11715;-77
2021/04/13 09:23:11;;;;;;;;;18.75;17.75;;;;;;;;5019577;28;11613;-74
2021/04/13 09:25:43;;;;;;;;;13.50;13.50;;;;;;;;5020961;28;11609;-75
2021/04/13 09:28:13;;;;;;;;;11.00;11.00;;;;;;;;5021546;28;11529;-75
2021/04/13 09:30:43;;;;;;;;;14.25;14.25;;;;;;;;5021948;28;11466;-75
2021/04/13 09:33:27;;;;;;;;;11.00;9.75;;;;;;;;5022871;28;11576;-73
2021/04/13 09:36:14;;;;;;;;;14.50;12.25;;;;;;;;5019976;28;11569;-74
2021/04/13 09:39:06;;;;;;;;;11.00;11.00;;;;;;;;5024018;28;11514;-75
2021/04/13 09:41:48;;;;;;;;;10.00;7.00;;;;;;;;5021940;28;11590;-74
2021/04/13 09:44:43;;;;;;;;;12.75;11.00;;;;;;;;5019457;28;11509;-75
2021/04/13 09:47:35;;;;;;;;;17.75;16.50;;;;;;;;5004027;28;11609;-74
2021/04/13 09:50:13;;;;;;;;;14.00;11.75;;;;;;;;5019168;28;11574;-75
2021/04/13 09:53:00;;;;;;;;;19.50;15.25;;;;;;;;5020344;28;11548;-76
2021/04/13 09:55:39;;;;;;;;;14.00;13.50;;;;;;;;5021709;28;11522;-75
2021/04/13 09:58:51;;;;;;;;;11.75;10.25;;;;;;;;5021936;28;11533;-76
2021/04/13 10:01:42;;;;;;;;;14.00;11.50;;;;;;;;4997516;28;11492;-76
2021/04/13 10:04:35;;;;;;;;;14.00;11.25;;;;;;;;5024779;28;11681;-75
2021/04/13 10:07:19;;;;;;;;;11.50;11.50;;;;;;;;5022608;28;11721;-77
2021/04/13 10:09:47;;;;;;;;;14.50;13.00;;;;;;;;5017591;28;11517;-81
2021/04/13 10:12:41;;;;;;;;;12.00;12.00;;;;;;;;5024243;28;11520;-78
2021/04/13 10:15:37;;;;;;;;;11.00;11.00;;;;;;;;5002095;28;11606;-78
2021/04/13 10:18:43;;;;;;;;;15.00;15.00;;;;;;;;5011052;28;11570;-75
2021/04/13 10:21:20;;;;;;;;;19.75;18.00;;;;;;;;5012666;28;11538;-76
2021/04/13 10:24:20;;;;;;;;;20.75;18.00;;;;;;;;5021772;28;11638;-75
2021/04/13 10:27:20;;;;;;;;;17.75;17.75;;;;;;;;4980833;28;11579;-77
2021/04/13 10:30:11;;;;;;;;;20.50;18.00;;;;;;;;4984625;28;11622;-76
2021/04/13 10:33:06;;;;;;;;;18.00;17.25;;;;;;;;5021235;28;12110;-76
2021/04/13 10:36:10;;;;;;;;;18.00;18.00;;;;;;;;4991303;28;11062;-77
2021/04/13 10:39:19;;;;;;;;;21.25;14.50;;;;;;;;5024202;28;11243;-76
2021/04/13 10:42:21;;;;;;;;;20.25;17.00;;;;;;;;5005044;28;11137;-78
2021/04/13 10:45:15;;;;;;;;;18.75;18.75;;;;;;;;4979636;28;11171;-78
2021/04/13 10:48:17;;;;;;;;;20.25;20.25;;;;;;;;5028315;28;11151;-78
2021/04/13 10:51:05;;;;;;;;;14.25;14.25;;;;;;;;5026343;28;11229;-75
2021/04/13 10:54:01;;;;;;;;;18.50;15.50;;;;;;;;5022517;28;11059;-78
2021/04/13 10:56:54;;;;;;;;;15.50;12.00;;;;;;;;5035398;28;10909;-77
2021/04/13 10:59:46;;;;;;;;;12.75;12.75;;;;;;;;5019242;28;11008;-76
2021/04/13 11:02:58;;;;;;;;;18.00;16.25;;;;;;;;5004075;28;11030;-76
2021/04/13 11:05:40;;;;;;;;;12.50;12.50;;;;;;;;5026270;28;11355;-77
2021/04/13 11:08:48;;;;;;;;;15.50;14.75;;;;;;;;5022037;28;11063;-75
2021/04/13 11:11:50;;;;;;;;;12.75;11.25;;;;;;;;5021646;28;11216;-79
2021/04/13 11:14:39;;;;;;;;;12.50;12.00;;;;;;;;5028436;28;11902;-75
2021/04/13 11:17:34;;;;;;;;;16.00;16.00;;;;;;;;5022431;28;11842;-75
2021/04/13 11:20:17;;;;;;;;;11.00;11.00;;;;;;;;5011452;28;11682;-73
2021/04/13 11:23:20;;;;;;;;;11.25;10.00;;;;;;;;5023515;28;10802;-73
2021/04/13 11:26:35;;;;;;;;;9.25;7.25;;;;;;;;5023684;28;10904;-71
2021/04/13 11:29:42;;;;;;;;;7.50;7.50;;;;;;;;4978048;28;10868;-74
2021/04/13 11:32:40;;;;;;;;;9.25;6.50;;;;;;;;4979937;28;10924;-74
2021/04/13 11:35:22;;;;;;;;;8.00;8.00;;;;;;;;5020194;28;10904;-80
2021/04/13 11:38:23;;;;;;;;;7.00;7.00;;;;;;;;5021945;28;10923;-74
2021/04/13 11:41:02;;;;;;;;;7.25;7.25;;;;;;;;5022852;28;11135;-76
2021/04/13 11:43:30;;;;;;;;;10.00;10.00;;;;;;;;5020598;28;11054;-78
2021/04/13 11:46:00;;;;;;;;;7.00;7.00;;;;;;;;5022518;28;10765;-74
2021/04/13 11:48:36;;;;;;;;;7.00;7.00;;;;;;;;5022806;28;10661;-75
2021/04/13 11:51:08;;;;;;;;;6.50;6.50;;;;;;;;5020678;28;10717;-74
2021/04/13 11:53:38;;;;;;;;;7.50;7.25;;;;;;;;5022877;28;10561;-74
2021/04/13 11:56:31;;;;;;;;;8.75;8.00;;;;;;;;5022420;28;10308;-75
2021/04/13 11:59:16;;;;;;;;;10.00;10.00;;;;;;;;5014781;28;10340;-75
2021/04/13 12:01:45;;;;;;;;;8.25;8.25;;;;;;;;5021984;28;10145;-75
2021/04/13 12:04:15;;;;;;;;;14.00;9.75;;;;;;;;5020939;28;10187;-75
2021/04/13 12:06:57;;;;;;;;;8.00;8.00;;;;;;;;5022233;28;10243;-75
2021/04/13 12:09:47;;;;;;;;;3.25;3.25;;;;;;;;5022127;28;10061;-75
2021/04/13 12:12:45;;;;;;;;;7.50;7.50;;;;;;;;5020299;28;10700;-75
2021/04/13 12:15:54;;;;;;;;;9.75;8.00;;;;;;;;5021865;28;10681;-75
2021/04/13 12:19:06;;;;;;;;;8.00;8.00;;;;;;;;5021556;28;10670;-74
2021/04/13 12:21:56;;;;;;;;;7.75;7.75;;;;;;;;5021124;28;9726;-75
2021/04/13 12:24:50;;;;;;;;;8.00;8.00;;;;;;;;5021820;28;9562;-74
2021/04/13 12:27:47;;;;;;;;;5.75;5.75;;;;;;;;5020531;28;9599;-75
2021/04/13 12:30:56;;;;;;;;;9.75;9.00;;;;;;;;5018253;28;9558;-74
2021/04/13 12:34:02;;;;;;;;;7.00;4.00;;;;;;;;5019689;28;9629;-74
2021/04/13 12:36:59;;;;;;;;;5.00;5.00;;;;;;;;4977017;28;9647;-76
2021/04/13 12:39:51;;;;;;;;;8.00;5.25;;;;;;;;4977357;28;9560;-75
2021/04/13 12:42:47;;;;;;;;;10.00;8.00;;;;;;;;4980385;28;9441;-75
2021/04/13 12:45:38;;;;;;;;;6.33;6.33;;;;;;;;4978397;28;9440;-74
2021/04/13 12:48:15;;;;;;;;;5.00;5.00;;;;;;;;4980717;28;9373;-75
2021/04/13 12:50:44;;;;;;;;;6.00;6.00;;;;;;;;4981384;28;9524;-75
2021/04/13 12:53:14;;;;;;;;;6.33;6.33;;;;;;;;4979486;28;9442;-75
2021/04/13 12:55:41;;;;;;;;;8.00;5.67;;;;;;;;4980089;28;9442;-76
2021/04/13 12:58:13;;;;;;;;;7.67;5.00;;;;;;;;4982593;28;9275;-75
2021/04/13 13:00:43;;;;;;;;;6.33;6.00;;;;;;;;4979200;28;9283;-76
2021/04/13 13:03:15;;;;;;;;;6.00;6.00;;;;;;;;4980024;28;9278;-75
2021/04/13 13:05:43;;;;;;;;;7.00;6.00;;;;;;;;4980848;28;9378;-76
2021/04/13 13:08:17;;;;;;;;;9.33;9.33;;;;;;;;4981500;28;9195;-76
2021/04/13 13:10:47;;;;;;;;;8.00;5.00;;;;;;;;4981593;28;9200;-76
2021/04/13 13:13:18;;;;;;;;;5.00;5.00;;;;;;;;4979801;28;9129;-73
2021/04/13 13:15:52;;;;;;;;;12.67;5.67;;;;;;;;4978260;28;9032;-76
2021/04/13 13:18:23;;;;;;;;;8.00;6.67;;;;;;;;4976727;28;9046;-75
2021/04/13 13:20:57;;;;;;;;;7.00;7.00;;;;;;;;4980565;28;9047;-75
2021/04/13 13:23:31;;;;;;;;;6.67;6.00;;;;;;;;4981946;28;8915;-75
2021/04/13 13:26:13;;;;;;;;;10.00;10.00;;;;;;;;4980723;28;8963;-75
2021/04/13 13:28:43;;;;;;;;;9.00;9.00;;;;;;;;4978242;28;9765;-73
2021/04/13 13:31:14;;;;;;;;;9.67;9.67;;;;;;;;4978309;28;8900;-74
2021/04/13 13:33:42;;;;;;;;;13.00;10.00;;;;;;;;4981371;28;10028;-76
2021/04/13 13:36:10;;;;;;;;;6.00;6.00;;;;;;;;5017314;28;9217;-76
2021/04/13 13:38:39;;;;;;;;;10.33;9.33;;;;;;;;5019636;28;9106;-74
2021/04/13 13:41:06;;;;;;;;;6.00;6.00;;;;;;;;5021309;28;9770;-74
2021/04/13 13:43:35;;;;;;;;;6.67;6.67;;;;;;;;5018661;28;8859;-74
2021/04/13 13:46:20;;;;;;;;;7.33;7.33;;;;;;;;5016941;28;8960;-73
2021/04/13 13:48:48;;;;;;;;;7.67;7.67;;;;;;;;5019952;28;8995;-81
2021/04/13 13:51:26;;;;;;;;;9.67;9.00;;;;;;;;5021402;28;9197;-79
2021/04/13 13:53:55;;;;;;;;;7.00;7.00;;;;;;;;5021238;28;9069;-80
2021/04/13 13:56:29;;;;;;;;;9.00;9.00;;;;;;;;5019069;28;9039;-75
2021/04/13 13:59:18;;;;;;;;;8.75;8.75;;;;;;;;5020391;28;9031;-76
2021/04/13 14:01:54;;;;;;;;;11.00;10.00;;;;;;;;5007256;28;8796;-75
2021/04/13 14:04:27;;;;;;;;;12.00;10.33;;;;;;;;5017512;28;8940;-80
2021/04/13 14:06:54;;;;;;;;;4.50;4.50;;;;;;;;5020451;28;8927;-76
2021/04/13 14:09:22;;;;;;;;;10.33;10.33;;;;;;;;5019854;28;8883;-74
2021/04/13 14:11:49;;;;;;;;;12.33;10.67;;;;;;;;5020516;28;8951;-75
2021/04/13 14:14:34;;;;;;;;;5.00;5.00;;;;;;;;5020020;28;8981;-80
2021/04/13 14:17:14;;;;;;;;;7.50;4.00;;;;;;;;5024679;28;9112;-78
2021/04/13 14:19:41;;;;;;;;;9.67;8.00;;;;;;;;5021097;28;8948;-78
2021/04/13 14:22:23;;;;;;;;;8.00;5.75;;;;;;;;5024193;28;9021;-79
2021/04/13 14:25:02;;;;;;;;;13.00;12.00;;;;;;;;5023764;28;8867;-79
2021/04/13 14:27:30;;;;;;;;;7.00;7.00;;;;;;;;5023520;28;9173;-76
2021/04/13 14:30:04;;;;;;;;;6.50;6.50;;;;;;;;5024581;28;8983;-78
2021/04/13 14:32:35;;;;;;;;;15.00;15.00;;;;;;;;5024095;28;8905;-78
2021/04/13 14:35:04;;;;;;;;;7.67;7.67;;;;;;;;5019355;28;9307;-77
2021/04/13 14:37:33;;;;;;;;;10.00;10.00;;;;;;;;5024483;28;9838;-81
2021/04/13 14:40:11;;;;;;;;;13.00;13.00;;;;;;;;5023761;28;9210;-79
2021/04/13 14:42:38;;;;;;;;;18.33;18.33;;;;;;;;5025577;28;9286;-79
2021/04/13 14:45:07;;;;;;;;;12.00;10.33;;;;;;;;5016067;28;9340;-82
2021/04/13 14:47:37;;;;;;;;;8.67;8.67;;;;;;;;5025547;28;8972;-82
2021/04/13 14:50:09;;;;;;;;;13.33;12.00;;;;;;;;5024061;28;8962;-78
2021/04/13 14:52:38;;;;;;;;;11.00;11.00;;;;;;;;5020348;28;9196;-79
2021/04/13 14:55:06;;;;;;;;;9.00;9.00;;;;;;;;5022818;28;8953;-76
2021/04/13 14:57:33;;;;;;;;;9.75;7.50;;;;;;;;5019916;28;8964;-78
2021/04/13 15:00:00;;;;;;;;;6.00;6.00;;;;;;;;5023340;28;8904;-79
2021/04/13 15:02:27;;;;;;;;;7.00;7.00;;;;;;;;5018513;28;8998;-77
2021/04/13 15:04:55;;;;;;;;;10.50;8.25;;;;;;;;5022784;28;8971;-75
2021/04/13 15:07:22;;;;;;;;;10.00;8.00;;;;;;;;5020746;28;8876;-78
2021/04/13 15:09:49;;;;;;;;;9.25;7.00;;;;;;;;5024480;28;8945;-79
2021/04/13 15:12:16;;;;;;;;;10.00;10.00;;;;;;;;5023553;28;8874;-80
2021/04/13 15:14:43;;;;;;;;;12.00;10.00;;;;;;;;5022076;28;8908;-80
2021/04/13 15:17:12;;;;;;;;;6.00;6.00;;;;;;;;5023477;28;8860;-80
2021/04/13 15:19:40;;;;;;;;;6.25;6.25;;;;;;;;5021174;28;9657;-81
2021/04/13 15:22:08;;;;;;;;;4.50;4.50;;;;;;;;5023750;28;8863;-79